createdAt,value
2023-07-18T00:00:37.838Z,4.25
2023-07-18T00:03:05.531Z,3.63
2023-07-18T00:05:37.438Z,4.00
2023-07-18T00:08:07.943Z,4.43
2023-07-18T00:10:37.636Z,4.03
2023-07-18T00:13:06.598Z,3.67
2023-07-18T00:15:38.137Z,3.85
2023-07-18T00:18:04.875Z,4.25
2023-07-18T00:20:31.966Z,4.22
2023-07-18T00:22:58.774Z,3.72
2023-07-18T00:25:25.647Z,4.03
2023-07-18T00:27:54.944Z,4.00
2023-07-18T00:30:25.189Z,4.10
2023-07-18T00:32:54.380Z,4.32
2023-07-18T00:35:21.050Z,3.92
2023-07-18T00:37:53.499Z,4.18
2023-07-18T00:40:20.265Z,4.63
2023-07-18T00:42:50.636Z,4.47
2023-07-18T00:45:22.050Z,4.53
2023-07-18T00:47:55.111Z,4.40
2023-07-18T00:50:22.754Z,4.25
2023-07-18T00:52:52.370Z,4.72
2023-07-18T00:55:22.728Z,4.32
2023-07-18T00:57:49.563Z,4.20
2023-07-18T01:00:18.982Z,4.47
2023-07-18T01:02:47.284Z,4.05
2023-07-18T01:05:20.954Z,3.67
2023-07-18T01:07:51.659Z,4.72
2023-07-18T01:10:26.716Z,4.85
2023-07-18T01:12:55.542Z,4.60
2023-07-18T01:15:25.333Z,4.43
2023-07-18T01:17:55.235Z,4.00
2023-07-18T01:20:28.864Z,4.95
2023-07-18T01:23:00.512Z,4.57
2023-07-18T01:28:00.738Z,4.18
2023-07-18T01:30:31.409Z,4.28
2023-07-18T01:32:58.411Z,4.53
2023-07-18T01:35:27.613Z,4.80
2023-07-18T01:37:58.276Z,4.38
2023-07-18T01:40:25.323Z,4.65
2023-07-18T01:42:56.129Z,4.45
2023-07-18T01:45:24.952Z,4.80
2023-07-18T01:47:52.555Z,4.95
2023-07-18T01:50:22.188Z,4.53
2023-07-18T01:52:51.343Z,4.53
2023-07-18T01:55:18.543Z,4.32
2023-07-18T01:57:47.810Z,4.72
2023-07-18T02:00:22.654Z,4.50
2023-07-18T02:02:51.452Z,4.18
2023-07-18T02:05:26.467Z,4.53
2023-07-18T02:07:53.903Z,4.32
2023-07-18T02:10:24.271Z,4.63
2023-07-18T02:12:52.621Z,4.35
2023-07-18T02:15:19.967Z,4.65
2023-07-18T02:17:49.537Z,4.28
2023-07-18T02:20:19.813Z,4.30
2023-07-18T02:22:53.827Z,4.70
2023-07-18T02:25:22.998Z,4.55
2023-07-18T02:27:52.052Z,4.25
2023-07-18T02:30:21.176Z,4.00
2023-07-18T02:32:47.988Z,4.85
2023-07-18T02:35:20.104Z,4.30
2023-07-18T02:37:50.138Z,4.93
2023-07-18T02:40:21.375Z,4.22
2023-07-18T02:42:48.277Z,4.47
2023-07-18T02:45:17.738Z,4.47
2023-07-18T02:47:46.777Z,4.65
2023-07-18T02:50:18.721Z,5.15
2023-07-18T02:52:50.759Z,4.50
2023-07-18T02:55:19.571Z,4.78
2023-07-18T02:57:48.584Z,4.57
2023-07-18T03:00:21.653Z,5.07
2023-07-18T03:02:52.792Z,4.70
2023-07-18T03:05:23.860Z,4.57
2023-07-18T03:07:56.051Z,5.47
2023-07-18T03:10:25.373Z,4.80
2023-07-18T03:12:57.140Z,4.78
2023-07-18T03:17:52.721Z,4.82
2023-07-18T03:20:21.997Z,4.55
2023-07-18T03:22:50.071Z,4.95
2023-07-18T03:25:18.659Z,5.55
2023-07-18T03:27:45.520Z,4.45
2023-07-18T03:30:13.355Z,5.05
2023-07-18T03:32:41.057Z,4.30
2023-07-18T03:35:12.198Z,4.60
2023-07-18T03:37:41.735Z,5.35
2023-07-18T03:40:11.653Z,4.38
2023-07-18T03:42:38.750Z,4.93
2023-07-18T03:45:11.990Z,4.63
2023-07-18T03:47:38.578Z,4.93
2023-07-18T03:50:05.448Z,5.20
2023-07-18T03:52:34.348Z,5.18
2023-07-18T03:55:00.943Z,5.13
2023-07-18T03:57:30.948Z,4.32
2023-07-18T04:00:04.853Z,5.13
2023-07-18T04:02:36.238Z,4.72
2023-07-18T04:05:02.804Z,4.53
2023-07-18T04:07:33.492Z,4.70
2023-07-18T04:10:00.521Z,4.68
2023-07-18T04:12:29.813Z,4.60
2023-07-18T04:14:56.691Z,4.90
2023-07-18T04:17:25.728Z,4.28
2023-07-18T04:20:02.210Z,4.47
2023-07-18T04:22:30.838Z,5.30
2023-07-18T04:24:58.059Z,4.60
2023-07-18T04:27:29.532Z,4.60
2023-07-18T04:29:57.835Z,4.90
2023-07-18T04:32:26.915Z,4.97
2023-07-18T04:34:53.602Z,5.22
2023-07-18T04:37:20.260Z,5.00
2023-07-18T04:39:47.172Z,5.10
2023-07-18T04:42:16.532Z,5.13
2023-07-18T04:44:45.597Z,4.88
2023-07-18T04:47:12.326Z,4.90
2023-07-18T04:49:39.309Z,4.60
2023-07-18T04:52:06.069Z,4.47
2023-07-18T04:54:33.182Z,4.57
2023-07-18T04:57:04.083Z,5.32
2023-07-18T04:59:36.951Z,4.72
2023-07-18T05:02:03.761Z,4.75
2023-07-18T05:04:30.510Z,4.85
2023-07-18T05:07:00.703Z,4.75
2023-07-18T05:09:29.302Z,5.00
2023-07-18T05:11:56.277Z,4.25
2023-07-18T05:14:23.946Z,4.90
2023-07-18T05:16:50.866Z,4.68
2023-07-18T05:19:20.014Z,4.65
2023-07-18T05:21:48.898Z,4.45
2023-07-18T05:24:15.666Z,4.50
2023-07-18T05:26:42.264Z,4.15
2023-07-18T05:29:11.492Z,5.10
2023-07-18T05:31:43.411Z,4.68
2023-07-18T05:34:15.278Z,4.30
2023-07-18T05:39:09.584Z,4.15
2023-07-18T05:41:40.113Z,4.63
2023-07-18T05:44:06.649Z,4.53
2023-07-18T05:46:38.302Z,4.50
2023-07-18T05:49:06.466Z,4.78
2023-07-18T05:51:33.099Z,4.57
2023-07-18T05:54:05.381Z,4.30
2023-07-18T05:56:32.913Z,4.30
2023-07-18T05:59:01.551Z,5.03
2023-07-18T06:01:28.132Z,5.10
2023-07-18T06:03:55.124Z,5.22
2023-07-18T06:06:21.800Z,4.65
2023-07-18T06:08:52.057Z,4.78
2023-07-18T06:11:21.377Z,4.53
2023-07-18T06:13:48.000Z,4.47
2023-07-18T06:16:15.018Z,4.63
2023-07-18T06:18:44.475Z,4.88
2023-07-18T06:21:11.142Z,4.75
2023-07-18T06:23:37.673Z,4.90
2023-07-18T06:26:08.688Z,5.22
2023-07-18T06:28:38.101Z,5.05
2023-07-18T06:31:04.746Z,4.97
2023-07-18T06:33:33.441Z,4.90
2023-07-18T06:36:05.010Z,4.90
2023-07-18T06:38:31.687Z,5.35
2023-07-18T06:40:58.381Z,5.18
2023-07-18T06:43:25.839Z,4.75
2023-07-18T06:45:54.725Z,4.70
2023-07-18T06:48:21.598Z,4.70
2023-07-18T06:50:50.408Z,4.90
2023-07-18T06:53:20.832Z,4.68
2023-07-18T06:55:57.288Z,5.05
2023-07-18T06:58:23.917Z,4.90
2023-07-18T07:00:53.703Z,4.95
2023-07-18T07:03:20.924Z,5.00
2023-07-18T07:05:51.410Z,4.82
2023-07-18T07:08:20.410Z,5.15
2023-07-18T07:10:47.306Z,4.90
2023-07-18T07:13:16.257Z,4.97
2023-07-18T07:15:47.736Z,4.78
2023-07-18T07:18:19.229Z,4.82
2023-07-18T07:20:50.585Z,5.05
2023-07-18T07:23:17.967Z,4.93
2023-07-18T07:25:47.838Z,5.13
2023-07-18T07:28:15.137Z,5.28
2023-07-18T07:30:44.691Z,4.82
2023-07-18T07:33:16.723Z,5.25
2023-07-18T07:35:44.752Z,5.22
2023-07-18T07:38:20.459Z,4.65
2023-07-18T07:40:47.118Z,5.15
2023-07-18T07:43:17.925Z,5.88
2023-07-18T07:45:51.930Z,5.00
2023-07-18T07:48:22.219Z,5.15
2023-07-18T07:50:56.188Z,4.90
2023-07-18T07:53:25.007Z,5.00
2023-07-18T07:55:55.450Z,5.70
2023-07-18T07:58:22.333Z,5.63
2023-07-18T08:00:49.169Z,5.07
2023-07-18T08:03:18.349Z,5.00
2023-07-18T08:05:45.119Z,5.03
2023-07-18T08:08:12.044Z,5.07
2023-07-18T08:10:41.020Z,4.72
2023-07-18T08:13:07.840Z,5.18
2023-07-18T08:15:34.597Z,5.05
2023-07-18T08:18:01.533Z,4.88
2023-07-18T08:20:29.072Z,4.97
2023-07-18T08:22:56.143Z,5.18
2023-07-18T08:25:28.626Z,5.28
2023-07-18T08:28:01.000Z,5.10
2023-07-18T08:30:28.247Z,4.80
2023-07-18T08:32:57.402Z,5.60
2023-07-18T08:35:26.644Z,5.32
2023-07-18T08:37:58.219Z,5.68
2023-07-18T08:42:57.866Z,5.15
2023-07-18T08:45:32.676Z,4.97
2023-07-18T08:48:04.311Z,4.82
2023-07-18T08:50:34.262Z,4.97
2023-07-18T08:53:06.275Z,5.38
2023-07-18T08:55:33.158Z,5.10
2023-07-18T08:58:03.519Z,5.15
2023-07-18T09:00:30.744Z,5.25
2023-07-18T09:02:57.558Z,5.07
2023-07-18T09:05:37.272Z,5.40
2023-07-18T09:08:05.641Z,4.93
2023-07-18T09:10:37.904Z,4.85
2023-07-18T09:13:08.813Z,5.40
2023-07-18T09:15:38.635Z,5.57
2023-07-18T09:18:07.277Z,5.28
2023-07-18T09:20:34.658Z,5.40
2023-07-18T09:23:05.161Z,5.30
2023-07-18T09:25:39.708Z,5.43
2023-07-18T09:28:13.593Z,4.97
2023-07-18T09:30:40.610Z,4.95
2023-07-18T09:33:08.051Z,4.85
2023-07-18T09:35:40.133Z,5.07
2023-07-18T09:38:08.532Z,5.20
2023-07-18T09:40:40.033Z,5.30
2023-07-18T09:43:12.456Z,5.22
2023-07-18T09:45:45.177Z,4.60
2023-07-18T09:48:12.586Z,5.20
2023-07-18T09:50:46.018Z,5.35
2023-07-18T09:53:14.650Z,5.13
2023-07-18T09:55:45.584Z,5.65
2023-07-18T09:58:13.844Z,4.93
2023-07-18T10:00:42.998Z,5.18
2023-07-18T10:03:15.409Z,5.75
2023-07-18T10:05:47.179Z,4.75
2023-07-18T10:08:16.805Z,5.22
2023-07-18T10:11:05.386Z,5.35
2023-07-18T10:13:41.850Z,5.05
2023-07-18T10:16:14.813Z,4.60
2023-07-18T10:18:48.429Z,4.72
2023-07-18T10:21:34.893Z,4.30
2023-07-18T10:24:23.183Z,4.75
2023-07-18T10:26:52.963Z,4.60
2023-07-18T10:29:20.178Z,4.38
2023-07-18T10:31:51.639Z,4.35
2023-07-18T10:37:03.098Z,5.03
2023-07-18T10:39:44.992Z,4.38
2023-07-18T10:42:22.195Z,4.70
2023-07-18T10:44:49.684Z,4.88
2023-07-18T10:47:20.189Z,4.78
2023-07-18T10:49:48.595Z,4.57
2023-07-18T10:52:16.633Z,4.40
2023-07-18T10:54:55.654Z,4.85
2023-07-18T10:57:30.952Z,4.50
2023-07-18T11:00:00.480Z,4.50
2023-07-18T11:02:29.330Z,4.65
2023-07-18T11:04:56.092Z,4.20
2023-07-18T11:07:34.784Z,4.47
2023-07-18T11:10:03.404Z,4.65
2023-07-18T11:12:30.041Z,4.68
2023-07-18T11:14:59.558Z,4.40
2023-07-18T11:17:31.881Z,4.83
2023-07-18T11:20:01.165Z,4.75
2023-07-18T11:22:28.978Z,5.07
2023-07-18T11:25:06.014Z,4.40
2023-07-18T11:27:32.740Z,4.65
2023-07-18T11:30:05.947Z,4.97
2023-07-18T11:32:42.067Z,5.45
2023-07-18T11:35:19.467Z,4.90
2023-07-18T11:37:47.886Z,5.50
2023-07-18T11:40:22.981Z,4.65
2023-07-18T11:43:01.767Z,5.28
2023-07-18T11:45:35.537Z,5.38
2023-07-18T11:48:07.346Z,4.80
2023-07-18T11:50:34.159Z,5.55
2023-07-18T11:53:08.948Z,5.28
2023-07-18T11:55:35.540Z,5.15
2023-07-18T11:58:02.202Z,5.07
2023-07-18T12:00:28.892Z,5.35
2023-07-18T12:02:58.457Z,5.38
2023-07-18T12:05:26.097Z,5.50
2023-07-18T12:07:53.105Z,5.57
2023-07-18T12:10:23.264Z,5.57
2023-07-18T12:12:50.759Z,5.30
2023-07-18T12:15:17.383Z,5.68
2023-07-18T12:17:46.627Z,5.88
2023-07-18T12:20:16.257Z,5.22
2023-07-18T12:22:45.951Z,5.85
2023-07-18T12:25:18.170Z,5.65
2023-07-18T12:27:47.009Z,5.43
2023-07-18T12:30:16.244Z,6.10
2023-07-18T12:32:48.375Z,5.97
2023-07-18T12:35:16.162Z,6.05
2023-07-18T12:37:42.846Z,5.80
2023-07-18T12:40:12.363Z,5.90
2023-07-18T12:42:41.322Z,5.38
2023-07-18T12:45:08.498Z,5.25
2023-07-18T12:47:38.043Z,5.50
2023-07-18T12:50:07.811Z,5.75
2023-07-18T12:52:35.306Z,5.88
2023-07-18T12:55:03.512Z,5.88
2023-07-18T12:57:32.230Z,5.45
2023-07-18T13:00:01.720Z,5.65
2023-07-18T13:02:31.099Z,6.28
2023-07-18T13:04:58.479Z,6.20
2023-07-18T13:07:25.217Z,6.05
2023-07-18T13:09:51.959Z,5.90
2023-07-18T13:12:20.987Z,6.43
2023-07-18T13:14:47.633Z,5.78
2023-07-18T13:17:14.326Z,5.72
2023-07-18T13:19:41.898Z,5.35
2023-07-18T13:22:08.617Z,5.78
2023-07-18T13:24:42.622Z,5.18
2023-07-18T13:27:11.625Z,5.70
2023-07-18T13:29:38.413Z,5.88
2023-07-18T13:32:10.929Z,5.38
2023-07-18T13:34:37.815Z,5.65
2023-07-18T13:37:07.516Z,5.70
2023-07-18T13:39:34.259Z,5.75
2023-07-18T13:42:00.937Z,5.65
2023-07-18T13:44:27.649Z,5.60
2023-07-18T13:46:54.410Z,5.18
2023-07-18T13:49:21.055Z,5.55
2023-07-18T13:51:51.383Z,5.82
2023-07-18T13:54:23.212Z,5.45
2023-07-18T13:56:49.972Z,6.00
2023-07-18T13:59:19.827Z,5.47
2023-07-18T14:01:53.628Z,5.50
2023-07-18T14:04:20.691Z,5.00
2023-07-18T14:06:54.409Z,5.13
2023-07-18T14:09:21.001Z,5.55
2023-07-18T14:11:50.249Z,5.60
2023-07-18T14:14:16.857Z,5.35
2023-07-18T14:16:43.643Z,5.13
2023-07-18T14:19:10.553Z,5.60
2023-07-18T14:21:39.813Z,5.28
2023-07-18T14:24:06.699Z,5.70
2023-07-18T14:26:35.969Z,5.07
2023-07-18T14:29:04.850Z,5.47
2023-07-18T14:31:35.876Z,4.72
2023-07-18T14:34:06.907Z,4.68
2023-07-18T14:36:34.908Z,4.40
2023-07-18T14:39:01.773Z,5.07
2023-07-18T14:41:28.559Z,4.68
2023-07-18T14:43:55.243Z,4.60
2023-07-18T14:46:26.682Z,4.88
2023-07-18T14:51:23.633Z,4.40
2023-07-18T14:53:52.737Z,4.13
2023-07-18T14:56:19.742Z,4.10
2023-07-18T14:58:49.088Z,4.80
2023-07-18T15:01:15.914Z,4.20
2023-07-18T15:03:45.525Z,4.47
2023-07-18T15:06:12.251Z,4.00
2023-07-18T15:08:41.878Z,4.15
2023-07-18T15:11:11.932Z,4.57
2023-07-18T15:13:38.656Z,4.85
2023-07-18T15:16:06.045Z,4.40
2023-07-18T15:18:32.752Z,4.22
2023-07-18T15:21:05.059Z,4.70
2023-07-18T15:23:37.414Z,4.03
2023-07-18T15:26:04.449Z,3.88
2023-07-18T15:28:33.018Z,4.05
2023-07-18T15:31:08.626Z,4.82
2023-07-18T15:33:37.881Z,4.25
2023-07-18T15:36:13.916Z,4.03
2023-07-18T15:38:44.703Z,3.97
2023-07-18T15:41:13.325Z,4.07
2023-07-18T15:43:44.923Z,4.38
2023-07-18T15:46:11.873Z,4.43
2023-07-18T15:48:39.565Z,4.00
2023-07-18T15:51:09.328Z,4.07
2023-07-18T15:53:39.189Z,3.78
2023-07-18T15:56:10.971Z,4.00
2023-07-18T15:58:39.561Z,4.15
2023-07-18T16:01:10.179Z,4.25
2023-07-18T16:03:38.371Z,4.40
2023-07-18T16:06:08.095Z,4.05
2023-07-18T16:08:48.722Z,5.13
2023-07-18T16:11:15.603Z,7.17
2023-07-18T16:13:44.977Z,10.25
2023-07-18T16:16:13.678Z,7.03
2023-07-18T16:18:57.529Z,5.78
2023-07-18T16:21:25.540Z,5.05
2023-07-18T16:23:53.368Z,4.80
2023-07-18T16:26:21.153Z,4.93
2023-07-18T16:28:54.407Z,4.55
2023-07-18T16:31:23.875Z,4.60
2023-07-18T16:33:55.947Z,4.38
2023-07-18T16:36:24.129Z,4.40
2023-07-18T16:38:52.982Z,4.70
2023-07-18T16:41:20.183Z,6.75
2023-07-18T16:43:46.860Z,4.75
2023-07-18T16:46:16.627Z,4.65
2023-07-18T16:48:45.816Z,4.00
2023-07-18T16:51:14.400Z,4.15
2023-07-18T16:53:42.073Z,5.00
2023-07-18T16:56:13.085Z,4.63
2023-07-18T16:58:43.858Z,3.90
2023-07-18T17:01:17.113Z,4.28
2023-07-18T17:03:46.490Z,4.25
2023-07-18T17:06:13.625Z,4.30
2023-07-18T17:08:41.876Z,6.90
2023-07-18T17:11:11.237Z,5.40
2023-07-18T17:13:38.005Z,5.13
2023-07-18T17:16:05.325Z,4.88
2023-07-18T17:18:34.458Z,4.95
2023-07-18T17:21:03.580Z,4.65
2023-07-18T17:23:32.881Z,4.65
2023-07-18T17:26:00.895Z,4.63
2023-07-18T17:28:29.864Z,4.43
2023-07-18T17:30:58.114Z,4.78
2023-07-18T17:33:27.230Z,4.40
2023-07-18T17:35:54.018Z,4.50
2023-07-18T17:38:23.152Z,4.20
2023-07-18T17:40:55.333Z,5.07
2023-07-18T17:43:23.398Z,4.88
2023-07-18T17:45:50.608Z,4.68
2023-07-18T17:48:22.430Z,4.28
2023-07-18T17:50:49.058Z,4.75
2023-07-18T17:53:17.204Z,4.65
2023-07-18T17:55:46.428Z,4.40
2023-07-18T17:58:13.258Z,5.45
2023-07-18T18:00:42.712Z,4.25
2023-07-18T18:03:13.026Z,4.95
2023-07-18T18:05:48.113Z,5.00
2023-07-18T18:08:17.116Z,4.78
2023-07-18T18:10:47.705Z,4.60
2023-07-18T18:13:15.252Z,4.70
2023-07-18T18:15:56.288Z,4.75
2023-07-18T18:18:31.799Z,5.10
2023-07-18T18:20:59.504Z,5.18
2023-07-18T18:23:37.420Z,5.40
2023-07-18T18:26:06.606Z,6.45
2023-07-18T18:28:33.710Z,7.82
2023-07-18T18:31:02.970Z,6.65
2023-07-18T18:33:29.976Z,6.95
2023-07-18T18:35:57.125Z,6.25
2023-07-18T18:38:24.019Z,5.18
2023-07-18T18:40:51.437Z,5.80
2023-07-18T18:43:19.945Z,5.78
2023-07-18T18:45:49.789Z,6.40
2023-07-18T18:48:16.633Z,5.00
2023-07-18T18:50:43.257Z,5.15
2023-07-18T18:53:09.897Z,7.30
2023-07-18T18:55:36.773Z,5.53
2023-07-18T18:58:05.999Z,5.30
2023-07-18T19:00:33.039Z,5.38
2023-07-18T19:03:00.006Z,5.80
2023-07-18T19:05:27.100Z,6.03
2023-07-18T19:07:54.104Z,5.20
2023-07-18T19:10:21.255Z,5.00
2023-07-18T19:12:48.262Z,5.45
2023-07-18T19:15:16.369Z,5.90
2023-07-18T19:17:43.461Z,5.50
2023-07-18T19:20:10.964Z,5.28
2023-07-18T19:22:37.932Z,5.38
2023-07-18T19:25:07.790Z,5.05
2023-07-18T19:27:34.889Z,5.40
2023-07-18T19:30:01.857Z,5.55
2023-07-18T19:32:28.829Z,5.50
2023-07-18T19:34:55.846Z,5.20
2023-07-18T19:37:23.146Z,4.93
2023-07-18T19:39:50.231Z,5.28
2023-07-18T19:42:17.319Z,5.57
2023-07-18T19:44:46.082Z,5.60
2023-07-18T19:47:15.247Z,5.67
2023-07-18T19:49:45.330Z,5.47
2023-07-18T19:52:12.449Z,5.60
2023-07-18T19:54:39.420Z,5.10
2023-07-18T19:57:06.648Z,6.25
2023-07-18T19:59:33.828Z,5.63
2023-07-18T20:02:00.730Z,5.43
2023-07-18T20:04:27.590Z,5.70
2023-07-18T20:06:54.542Z,5.72
2023-07-18T20:09:21.623Z,5.28
2023-07-18T20:11:51.109Z,5.40
2023-07-18T20:14:23.775Z,5.75
2023-07-18T20:16:55.267Z,5.43
2023-07-18T20:21:48.925Z,4.97
2023-07-18T20:24:15.656Z,5.03
2023-07-18T20:26:43.827Z,5.38
2023-07-18T20:29:10.852Z,5.70
2023-07-18T20:31:40.155Z,5.38
2023-07-18T20:34:09.150Z,5.38
2023-07-18T20:36:36.549Z,5.78
2023-07-18T20:39:03.417Z,5.07
2023-07-18T20:41:31.301Z,5.20
2023-07-18T20:43:58.203Z,5.60
2023-07-18T20:46:24.993Z,13.65
2023-07-18T20:48:52.025Z,13.63
2023-07-18T20:51:19.073Z,6.00
2023-07-18T20:53:45.905Z,8.80
2023-07-18T20:56:15.084Z,7.57
2023-07-18T20:58:42.197Z,6.80
2023-07-18T21:01:08.964Z,7.22
2023-07-18T21:03:35.730Z,7.15
2023-07-18T21:06:02.502Z,7.15
2023-07-18T21:08:29.148Z,6.82
2023-07-18T21:10:58.332Z,6.32
2023-07-18T21:13:25.184Z,5.75
2023-07-18T21:15:52.659Z,5.85
2023-07-18T21:18:19.489Z,9.35
2023-07-18T21:20:48.661Z,9.80
2023-07-18T21:23:15.409Z,8.70
2023-07-18T21:25:44.285Z,7.18
2023-07-18T21:28:13.195Z,7.40
2023-07-18T21:30:39.948Z,6.50
2023-07-18T21:33:11.127Z,5.90
2023-07-18T21:35:37.833Z,6.60
2023-07-18T21:38:06.531Z,7.05
2023-07-18T21:40:33.490Z,5.63
2023-07-18T21:43:00.357Z,5.97
2023-07-18T21:45:27.241Z,5.32
2023-07-18T21:47:54.020Z,5.18
2023-07-18T21:50:20.804Z,5.63
2023-07-18T21:52:47.672Z,5.70
2023-07-18T21:55:14.561Z,5.13
2023-07-18T21:57:43.876Z,5.75
2023-07-18T22:00:13.379Z,5.68
2023-07-18T22:02:40.299Z,5.10
2023-07-18T22:05:08.029Z,5.22
2023-07-18T22:07:34.800Z,5.20
2023-07-18T22:10:03.477Z,5.72
2023-07-18T22:12:30.572Z,5.50
2023-07-18T22:14:57.589Z,5.60
2023-07-18T22:17:27.237Z,5.47
2023-07-18T22:19:53.965Z,5.53
2023-07-18T22:22:20.530Z,5.13
2023-07-18T22:24:49.638Z,5.38
2023-07-18T22:27:16.569Z,5.45
2023-07-18T22:29:43.451Z,5.63
2023-07-18T22:32:10.337Z,5.88
2023-07-18T22:34:37.175Z,5.82
2023-07-18T22:37:04.119Z,5.70
2023-07-18T22:39:36.370Z,5.07
2023-07-18T22:42:15.372Z,4.53
2023-07-18T22:44:46.456Z,5.47
2023-07-18T22:47:14.136Z,5.35
2023-07-18T22:49:41.592Z,5.70
2023-07-18T22:52:19.096Z,4.95
2023-07-18T22:54:51.779Z,5.00
2023-07-18T22:57:19.032Z,5.65
2023-07-18T22:59:48.579Z,5.35
2023-07-18T23:02:15.804Z,5.28
2023-07-18T23:04:43.626Z,5.22
2023-07-18T23:07:10.351Z,5.53
2023-07-18T23:09:37.110Z,5.10
2023-07-18T23:12:04.048Z,5.65
2023-07-18T23:14:33.072Z,4.95
2023-07-18T23:16:59.776Z,5.53
2023-07-18T23:19:26.918Z,5.25
2023-07-18T23:21:53.625Z,5.00
2023-07-18T23:24:20.347Z,4.97
2023-07-18T23:26:49.338Z,5.05
2023-07-18T23:29:16.175Z,4.95
2023-07-18T23:31:45.849Z,5.68
2023-07-18T23:34:12.883Z,5.13
2023-07-18T23:36:39.574Z,4.97
2023-07-18T23:39:06.934Z,5.32
2023-07-18T23:41:36.244Z,5.28
2023-07-18T23:44:03.272Z,5.50
2023-07-18T23:46:29.891Z,5.60
2023-07-18T23:48:56.968Z,5.65
2023-07-18T23:51:25.839Z,4.75
2023-07-18T23:53:53.468Z,5.10
2023-07-18T23:56:20.732Z,5.20
2023-07-18T23:58:47.810Z,5.07
